sensor_id;sensor_type;location;lat;lon;timestamp;pressure;altitude;pressure_sealevel;temperature;humidity
51452;BME280;37521;52.020;-1.740;2023-02-28T00:01:30;101690.44;;;1.50;100.00
51452;BME280;37521;52.020;-1.740;2023-02-28T00:04:00;101693.94;;;1.52;100.00
51452;BME280;37521;52.020;-1.740;2023-02-28T00:06:28;101690.53;;;1.55;100.00
51452;BME280;37521;52.020;-1.740;2023-02-28T00:08:57;101693.06;;;1.53;100.00
51452;BME280;37521;52.020;-1.740;2023-02-28T00:11:25;101692.19;;;1.53;100.00
51452;BME280;37521;52.020;-1.740;2023-02-28T00:13:54;101702.59;;;1.51;100.00
51452;BME280;37521;52.020;-1.740;2023-02-28T00:16:22;101691.22;;;1.46;100.00
51452;BME280;37521;52.020;-1.740;2023-02-28T00:18:51;101696.38;;;1.43;100.00
51452;BME280;37521;52.020;-1.740;2023-02-28T00:21:23;101696.28;;;1.37;100.00
51452;BME280;37521;52.020;-1.740;2023-02-28T00:23:51;101703.97;;;1.32;100.00
51452;BME280;37521;52.020;-1.740;2023-02-28T00:26:19;101698.66;;;1.26;100.00
51452;BME280;37521;52.020;-1.740;2023-02-28T00:28:48;101700.34;;;1.23;100.00
51452;BME280;37521;52.020;-1.740;2023-02-28T00:31:17;101699.44;;;1.21;100.00
51452;BME280;37521;52.020;-1.740;2023-02-28T00:33:47;101701.13;;;1.19;100.00
51452;BME280;37521;52.020;-1.740;2023-02-28T00:36:15;101702.88;;;1.20;100.00
51452;BME280;37521;52.020;-1.740;2023-02-28T00:38:45;101697.66;;;1.20;100.00
51452;BME280;37521;52.020;-1.740;2023-02-28T00:41:13;101697.72;;;1.21;100.00
51452;BME280;37521;52.020;-1.740;2023-02-28T00:43:41;101706.34;;;1.19;100.00
51452;BME280;37521;52.020;-1.740;2023-02-28T00:46:10;101700.28;;;1.20;100.00
51452;BME280;37521;52.020;-1.740;2023-02-28T00:48:38;101709.88;;;1.21;100.00
51452;BME280;37521;52.020;-1.740;2023-02-28T00:51:07;101709.81;;;1.19;100.00
51452;BME280;37521;52.020;-1.740;2023-02-28T00:53:35;101714.13;;;1.17;100.00
51452;BME280;37521;52.020;-1.740;2023-02-28T00:56:06;101709.69;;;1.13;100.00
51452;BME280;37521;52.020;-1.740;2023-02-28T00:58:34;101713.97;;;1.09;100.00
51452;BME280;37521;52.020;-1.740;2023-02-28T01:01:02;101713.00;;;1.04;100.00
51452;BME280;37521;52.020;-1.740;2023-02-28T01:03:30;101718.09;;;1.00;100.00
51452;BME280;37521;52.020;-1.740;2023-02-28T01:05:59;101711.13;;;0.99;100.00
51452;BME280;37521;52.020;-1.740;2023-02-28T01:08:27;101715.50;;;1.00;100.00
51452;BME280;37521;52.020;-1.740;2023-02-28T01:10:55;101719.81;;;0.99;100.00
51452;BME280;37521;52.020;-1.740;2023-02-28T01:13:25;101722.50;;;1.02;100.00
51452;BME280;37521;52.020;-1.740;2023-02-28T01:15:55;101719.91;;;1.02;100.00
51452;BME280;37521;52.020;-1.740;2023-02-28T01:18:24;101718.19;;;1.04;100.00
51452;BME280;37521;52.020;-1.740;2023-02-28T01:20:52;101714.75;;;1.05;100.00
51452;BME280;37521;52.020;-1.740;2023-02-28T01:23:22;101711.38;;;1.09;100.00
51452;BME280;37521;52.020;-1.740;2023-02-28T01:25:51;101718.38;;;1.14;100.00
51452;BME280;37521;52.020;-1.740;2023-02-28T01:28:20;101717.50;;;1.13;100.00
51452;BME280;37521;52.020;-1.740;2023-02-28T01:30:50;101716.69;;;1.16;100.00
51452;BME280;37521;52.020;-1.740;2023-02-28T01:33:19;101720.19;;;1.18;100.00
51452;BME280;37521;52.020;-1.740;2023-02-28T01:35:48;101709.78;;;1.18;100.00
51452;BME280;37521;52.020;-1.740;2023-02-28T01:38:16;101718.38;;;1.14;100.00
51452;BME280;37521;52.020;-1.740;2023-02-28T01:40:49;101716.56;;;1.09;100.00
51452;BME280;37521;52.020;-1.740;2023-02-28T01:43:21;101723.41;;;1.06;100.00
51452;BME280;37521;52.020;-1.740;2023-02-28T01:45:53;101706.91;;;1.02;100.00
51452;BME280;37521;52.020;-1.740;2023-02-28T01:48:25;101707.66;;;0.98;100.00
51452;BME280;37521;52.020;-1.740;2023-02-28T01:50:55;101710.22;;;0.95;100.00
51452;BME280;37521;52.020;-1.740;2023-02-28T01:53:31;101715.31;;;0.91;100.00
51452;BME280;37521;52.020;-1.740;2023-02-28T01:56:00;101722.25;;;0.92;100.00
51452;BME280;37521;52.020;-1.740;2023-02-28T01:58:31;101724.06;;;0.94;100.00
51452;BME280;37521;52.020;-1.740;2023-02-28T02:01:01;101722.41;;;0.98;100.00
51452;BME280;37521;52.020;-1.740;2023-02-28T02:03:31;101718.16;;;1.01;100.00
51452;BME280;37521;52.020;-1.740;2023-02-28T02:05:59;101718.19;;;1.04;100.00
51452;BME280;37521;52.020;-1.740;2023-02-28T02:08:29;101719.91;;;1.04;100.00
51452;BME280;37521;52.020;-1.740;2023-02-28T02:10:59;101726.03;;;1.06;100.00
51452;BME280;37521;52.020;-1.740;2023-02-28T02:13:42;101717.38;;;1.07;100.00
51452;BME280;37521;52.020;-1.740;2023-02-28T02:16:27;101724.41;;;1.11;100.00
51452;BME280;37521;52.020;-1.740;2023-02-28T02:19:11;101717.50;;;1.13;100.00
51452;BME280;37521;52.020;-1.740;2023-02-28T02:27:48;101722.06;;;1.25;100.00
51452;BME280;37521;52.020;-1.740;2023-02-28T02:36:27;101725.50;;;1.24;100.00
51452;BME280;37521;52.020;-1.740;2023-02-28T02:39:02;101721.19;;;1.24;100.00
51452;BME280;37521;52.020;-1.740;2023-02-28T02:41:36;101711.59;;;1.22;100.00
51452;BME280;37521;52.020;-1.740;2023-02-28T02:44:12;101718.47;;;1.20;100.00
51452;BME280;37521;52.020;-1.740;2023-02-28T02:46:42;101718.47;;;1.20;100.00
51452;BME280;37521;52.020;-1.740;2023-02-28T02:49:15;101707.22;;;1.19;100.00
51452;BME280;37521;52.020;-1.740;2023-02-28T02:51:47;101704.59;;;1.18;100.00
51452;BME280;37521;52.020;-1.740;2023-02-28T02:54:19;101706.28;;;1.16;100.00
51452;BME280;37521;52.020;-1.740;2023-02-28T02:56:49;101706.28;;;1.16;100.00
51452;BME280;37521;52.020;-1.740;2023-02-28T02:59:21;101711.50;;;1.16;100.00
51452;BME280;37521;52.020;-1.740;2023-02-28T03:01:53;101711.50;;;1.16;100.00
51452;BME280;37521;52.020;-1.740;2023-02-28T03:04:24;101708.91;;;1.17;100.00
51452;BME280;37521;52.020;-1.740;2023-02-28T03:06:55;101701.97;;;1.18;100.00
51452;BME280;37521;52.020;-1.740;2023-02-28T03:09:24;101699.44;;;1.21;100.00
51452;BME280;37521;52.020;-1.740;2023-02-28T03:11:55;101702.00;;;1.19;100.00
51452;BME280;37521;52.020;-1.740;2023-02-28T03:14:29;101701.13;;;1.19;100.00
51452;BME280;37521;52.020;-1.740;2023-02-28T03:17:16;101703.75;;;1.20;100.00
51452;BME280;37521;52.020;-1.740;2023-02-28T03:19:55;101698.59;;;1.22;100.00
51452;BME280;37521;52.020;-1.740;2023-02-28T03:22:45;101695.16;;;1.23;100.00
51452;BME280;37521;52.020;-1.740;2023-02-28T03:25:23;101696.91;;;1.24;100.00
51452;BME280;37521;52.020;-1.740;2023-02-28T03:28:00;101691.69;;;1.24;100.00
51452;BME280;37521;52.020;-1.740;2023-02-28T03:30:37;101692.59;;;1.26;100.00
51452;BME280;37521;52.020;-1.740;2023-02-28T03:33:10;101697.78;;;1.26;100.00
51452;BME280;37521;52.020;-1.740;2023-02-28T03:35:43;101690.84;;;1.25;100.00
51452;BME280;37521;52.020;-1.740;2023-02-28T03:38:18;101696.91;;;1.24;100.00
51452;BME280;37521;52.020;-1.740;2023-02-28T03:40:50;101700.31;;;1.21;100.00
51452;BME280;37521;52.020;-1.740;2023-02-28T03:43:23;101692.47;;;1.20;100.00
51452;BME280;37521;52.020;-1.740;2023-02-28T03:45:54;101688.13;;;1.20;100.00
51452;BME280;37521;52.020;-1.740;2023-02-28T03:48:27;101692.47;;;1.20;100.00
51452;BME280;37521;52.020;-1.740;2023-02-28T03:50:58;101691.66;;;1.22;100.00
51452;BME280;37521;52.020;-1.740;2023-02-28T03:53:32;101696.94;;;1.27;100.00
51452;BME280;37521;52.020;-1.740;2023-02-28T03:56:06;101690.06;;;1.30;100.00
51452;BME280;37521;52.020;-1.740;2023-02-28T03:58:39;101698.75;;;1.31;100.00
51452;BME280;37521;52.020;-1.740;2023-02-28T04:01:12;101701.38;;;1.31;100.00
51452;BME280;37521;52.020;-1.740;2023-02-28T04:03:43;101703.09;;;1.32;100.00
51452;BME280;37521;52.020;-1.740;2023-02-28T04:06:15;101703.97;;;1.31;100.00
51452;BME280;37521;52.020;-1.740;2023-02-28T04:08:46;101694.41;;;1.30;100.00
51452;BME280;37521;52.020;-1.740;2023-02-28T04:11:19;101708.28;;;1.30;100.00
51452;BME280;37521;52.020;-1.740;2023-02-28T04:13:48;101704.84;;;1.31;100.00
51452;BME280;37521;52.020;-1.740;2023-02-28T04:16:18;101698.84;;;1.35;100.00
51452;BME280;37521;52.020;-1.740;2023-02-28T04:19:00;101703.22;;;1.36;100.00
51452;BME280;37521;52.020;-1.740;2023-02-28T04:21:31;101703.22;;;1.36;100.00
51452;BME280;37521;52.020;-1.740;2023-02-28T04:24:01;101703.22;;;1.36;100.00
51452;BME280;37521;52.020;-1.740;2023-02-28T04:26:29;101705.78;;;1.35;100.00
51452;BME280;37521;52.020;-1.740;2023-02-28T04:28:59;101704.03;;;1.34;100.00
51452;BME280;37521;52.020;-1.740;2023-02-28T04:31:28;101704.94;;;1.36;100.00
51452;BME280;37521;52.020;-1.740;2023-02-28T04:33:57;101702.31;;;1.34;100.00
51452;BME280;37521;52.020;-1.740;2023-02-28T04:36:25;101703.94;;;1.29;100.00
51452;BME280;37521;52.020;-1.740;2023-02-28T04:38:54;101707.34;;;1.27;100.00
51452;BME280;37521;52.020;-1.740;2023-02-28T04:41:23;101707.34;;;1.27;100.00
51452;BME280;37521;52.020;-1.740;2023-02-28T04:43:53;101705.66;;;1.27;100.00
51452;BME280;37521;52.020;-1.740;2023-02-28T04:46:23;101711.72;;;1.28;100.00
51452;BME280;37521;52.020;-1.740;2023-02-28T04:48:51;101709.13;;;1.28;100.00
51452;BME280;37521;52.020;-1.740;2023-02-28T04:51:20;101708.19;;;1.26;100.00
51452;BME280;37521;52.020;-1.740;2023-02-28T04:53:49;101708.19;;;1.24;100.00
51452;BME280;37521;52.020;-1.740;2023-02-28T04:56:18;101716.84;;;1.23;100.00
51452;BME280;37521;52.020;-1.740;2023-02-28T04:58:47;101706.44;;;1.25;100.00
51452;BME280;37521;52.020;-1.740;2023-02-28T05:01:21;101696.94;;;1.27;100.00
51452;BME280;37521;52.020;-1.740;2023-02-28T05:03:50;101707.41;;;1.30;100.00
51452;BME280;37521;52.020;-1.740;2023-02-28T05:06:22;101703.97;;;1.32;100.00
51452;BME280;37521;52.020;-1.740;2023-02-28T05:08:51;101711.84;;;1.34;100.00
51452;BME280;37521;52.020;-1.740;2023-02-28T05:11:21;101716.22;;;1.36;100.00
51452;BME280;37521;52.020;-1.740;2023-02-28T05:13:52;101718.75;;;1.33;100.00
51452;BME280;37521;52.020;-1.740;2023-02-28T05:16:20;101721.34;;;1.33;100.00
51452;BME280;37521;52.020;-1.740;2023-02-28T05:18:49;101722.25;;;1.34;100.00
51452;BME280;37521;52.020;-1.740;2023-02-28T05:21:24;101717.09;;;1.37;100.00
51452;BME280;37521;52.020;-1.740;2023-02-28T05:23:54;101720.59;;;1.39;100.00
51452;BME280;37521;52.020;-1.740;2023-02-28T05:26:23;101718.81;;;1.36;100.00
51452;BME280;37521;52.020;-1.740;2023-02-28T05:28:53;101714.50;;;1.39;100.00
51452;BME280;37521;52.020;-1.740;2023-02-28T05:31:22;101722.34;;;1.40;100.00
51452;BME280;37521;52.020;-1.740;2023-02-28T05:33:50;101721.53;;;1.41;100.00
51452;BME280;37521;52.020;-1.740;2023-02-28T05:36:19;101728.44;;;1.41;100.00
51452;BME280;37521;52.020;-1.740;2023-02-28T05:38:48;101725.88;;;1.42;100.00
51452;BME280;37521;52.020;-1.740;2023-02-28T05:41:18;101733.69;;;1.44;100.00
51452;BME280;37521;52.020;-1.740;2023-02-28T05:43:47;101726.78;;;1.46;100.00
51452;BME280;37521;52.020;-1.740;2023-02-28T05:46:17;101731.13;;;1.45;100.00
51452;BME280;37521;52.020;-1.740;2023-02-28T05:48:47;101739.84;;;1.47;100.00
51452;BME280;37521;52.020;-1.740;2023-02-28T05:51:16;101744.22;;;1.48;100.00
51452;BME280;37521;52.020;-1.740;2023-02-28T05:53:45;101742.47;;;1.49;100.00
51452;BME280;37521;52.020;-1.740;2023-02-28T05:56:15;101740.75;;;1.49;100.00
51452;BME280;37521;52.020;-1.740;2023-02-28T05:58:43;101745.97;;;1.49;100.00
51452;BME280;37521;52.020;-1.740;2023-02-28T06:01:33;101747.72;;;1.50;100.00
51452;BME280;37521;52.020;-1.740;2023-02-28T06:04:03;101750.31;;;1.50;100.00
51452;BME280;37521;52.020;-1.740;2023-02-28T06:06:32;101753.75;;;1.49;100.00
51452;BME280;37521;52.020;-1.740;2023-02-28T06:09:03;101756.34;;;1.48;100.00
51452;BME280;37521;52.020;-1.740;2023-02-28T06:11:32;101755.47;;;1.47;100.00
51452;BME280;37521;52.020;-1.740;2023-02-28T06:14:02;101762.44;;;1.48;100.00
51452;BME280;37521;52.020;-1.740;2023-02-28T06:16:33;101764.16;;;1.48;100.00
51452;BME280;37521;52.020;-1.740;2023-02-28T06:19:03;101758.91;;;1.46;100.00
51452;BME280;37521;52.020;-1.740;2023-02-28T06:21:31;101757.22;;;1.48;100.00
51452;BME280;37521;52.020;-1.740;2023-02-28T06:24:00;101750.31;;;1.50;100.00
51452;BME280;37521;52.020;-1.740;2023-02-28T06:26:28;101743.38;;;1.52;100.00
51452;BME280;37521;52.020;-1.740;2023-02-28T06:28:57;101748.59;;;1.52;100.00
51452;BME280;37521;52.020;-1.740;2023-02-28T06:31:25;101755.50;;;1.50;100.00
51452;BME280;37521;52.020;-1.740;2023-02-28T06:33:57;101752.00;;;1.48;100.00
51452;BME280;37521;52.020;-1.740;2023-02-28T06:36:25;101751.16;;;1.49;100.00
51452;BME280;37521;52.020;-1.740;2023-02-28T06:38:54;101759.00;;;1.52;100.00
51452;BME280;37521;52.020;-1.740;2023-02-28T06:41:24;101752.94;;;1.53;100.00
51452;BME280;37521;52.020;-1.740;2023-02-28T06:43:54;101762.56;;;1.56;100.00
51452;BME280;37521;52.020;-1.740;2023-02-28T06:46:23;101758.22;;;1.55;100.00
51452;BME280;37521;52.020;-1.740;2023-02-28T06:48:51;101753.88;;;1.55;100.00
51452;BME280;37521;52.020;-1.740;2023-02-28T06:51:21;101765.16;;;1.54;100.00
51452;BME280;37521;52.020;-1.740;2023-02-28T06:53:51;101765.97;;;1.53;100.00
51452;BME280;37521;52.020;-1.740;2023-02-28T06:56:20;101772.91;;;1.53;100.00
51452;BME280;37521;52.020;-1.740;2023-02-28T06:58:49;101770.34;;;1.54;100.00
51452;BME280;37521;52.020;-1.740;2023-02-28T07:01:19;101774.72;;;1.57;100.00
51452;BME280;37521;52.020;-1.740;2023-02-28T07:03:49;101773.84;;;1.56;100.00
51452;BME280;37521;52.020;-1.740;2023-02-28T07:06:20;101774.72;;;1.55;100.00
51452;BME280;37521;52.020;-1.740;2023-02-28T07:08:50;101778.16;;;1.54;100.00
51452;BME280;37521;52.020;-1.740;2023-02-28T07:11:20;101779.91;;;1.55;100.00
51452;BME280;37521;52.020;-1.740;2023-02-28T07:13:49;101779.97;;;1.58;100.00
51452;BME280;37521;52.020;-1.740;2023-02-28T07:16:18;101776.50;;;1.59;100.00
51452;BME280;37521;52.020;-1.740;2023-02-28T07:18:46;101783.53;;;1.63;100.00
51452;BME280;37521;52.020;-1.740;2023-02-28T07:21:15;101787.91;;;1.66;100.00
51452;BME280;37521;52.020;-1.740;2023-02-28T07:23:44;101775.81;;;1.68;100.00
51452;BME280;37521;52.020;-1.740;2023-02-28T07:26:14;101787.97;;;1.68;100.00
51452;BME280;37521;52.020;-1.740;2023-02-28T07:28:44;101790.59;;;1.71;100.00
51452;BME280;37521;52.020;-1.740;2023-02-28T07:31:14;101785.34;;;1.68;100.00
51452;BME280;37521;52.020;-1.740;2023-02-28T07:33:42;101785.25;;;1.63;100.00
51452;BME280;37521;52.020;-1.740;2023-02-28T07:36:12;101785.25;;;1.61;100.00
51452;BME280;37521;52.020;-1.740;2023-02-28T07:38:43;101781.72;;;1.59;100.00
51452;BME280;37521;52.020;-1.740;2023-02-28T07:41:16;101793.03;;;1.61;100.00
51452;BME280;37521;52.020;-1.740;2023-02-28T07:43:45;101790.44;;;1.61;100.00
51452;BME280;37521;52.020;-1.740;2023-02-28T07:46:15;101785.25;;;1.61;100.00
51452;BME280;37521;52.020;-1.740;2023-02-28T07:48:44;101788.75;;;1.63;100.00
51452;BME280;37521;52.020;-1.740;2023-02-28T07:51:13;101785.31;;;1.66;100.00
51452;BME280;37521;52.020;-1.740;2023-02-28T07:53:41;101793.94;;;1.63;100.00
51452;BME280;37521;52.020;-1.740;2023-02-28T07:56:09;101796.53;;;1.63;100.00
51452;BME280;37521;52.020;-1.740;2023-02-28T07:58:39;101800.91;;;1.64;100.00
51452;BME280;37521;52.020;-1.740;2023-02-28T08:01:09;101794.81;;;1.64;100.00
51452;BME280;37521;52.020;-1.740;2023-02-28T08:03:38;101793.94;;;1.63;100.00
51452;BME280;37521;52.020;-1.740;2023-02-28T08:06:08;101784.38;;;1.62;100.00
51452;BME280;37521;52.020;-1.740;2023-02-28T08:08:42;101792.25;;;1.66;100.00
51452;BME280;37521;52.020;-1.740;2023-02-28T08:11:11;101789.66;;;1.67;100.00
51452;BME280;37521;52.020;-1.740;2023-02-28T08:13:40;101788.84;;;1.70;100.00
51452;BME280;37521;52.020;-1.740;2023-02-28T08:16:11;101792.38;;;1.73;100.00
51452;BME280;37521;52.020;-1.740;2023-02-28T08:18:41;101791.56;;;1.76;100.00
51452;BME280;37521;52.020;-1.740;2023-02-28T08:21:10;101802.03;;;1.79;100.00
51452;BME280;37521;52.020;-1.740;2023-02-28T08:23:38;101801.19;;;1.80;100.00
51452;BME280;37521;52.020;-1.740;2023-02-28T08:26:06;101790.84;;;1.83;100.00
51452;BME280;37521;52.020;-1.740;2023-02-28T08:28:34;101797.78;;;1.84;100.00
51452;BME280;37521;52.020;-1.740;2023-02-28T08:31:08;101797.81;;;1.85;100.00
51452;BME280;37521;52.020;-1.740;2023-02-28T08:33:37;101799.53;;;1.85;100.00
51452;BME280;37521;52.020;-1.740;2023-02-28T08:36:06;101803.03;;;1.87;100.00
51452;BME280;37521;52.020;-1.740;2023-02-28T08:38:35;101800.50;;;1.88;100.00
51452;BME280;37521;52.020;-1.740;2023-02-28T08:41:07;101797.91;;;1.90;100.00
51452;BME280;37521;52.020;-1.740;2023-02-28T08:43:36;101784.03;;;1.92;100.00
51452;BME280;37521;52.020;-1.740;2023-02-28T08:46:05;101791.06;;;1.95;100.00
51452;BME280;37521;52.020;-1.740;2023-02-28T08:48:35;101783.25;;;1.95;100.00
51452;BME280;37521;52.020;-1.740;2023-02-28T08:51:06;101797.13;;;1.96;100.00
51452;BME280;37521;52.020;-1.740;2023-02-28T08:53:36;101797.13;;;1.96;100.00
51452;BME280;37521;52.020;-1.740;2023-02-28T08:56:07;101799.81;;;2.00;100.00
51452;BME280;37521;52.020;-1.740;2023-02-28T08:58:36;101800.72;;;2.01;100.00
51452;BME280;37521;52.020;-1.740;2023-02-28T09:01:08;101793.78;;;2.01;100.00
51452;BME280;37521;52.020;-1.740;2023-02-28T09:03:39;101798.06;;;1.99;100.00
51452;BME280;37521;52.020;-1.740;2023-02-28T09:06:09;101804.13;;;1.98;100.00
51452;BME280;37521;52.020;-1.740;2023-02-28T09:08:38;101793.66;;;1.95;100.00
51452;BME280;37521;52.020;-1.740;2023-02-28T09:11:06;101793.69;;;1.98;100.00
51452;BME280;37521;52.020;-1.740;2023-02-28T09:13:35;101795.44;;;1.99;100.00
51452;BME280;37521;52.020;-1.740;2023-02-28T09:16:06;101798.97;;;2.01;100.00
51452;BME280;37521;52.020;-1.740;2023-02-28T09:18:35;101794.59;;;2.00;100.00
51452;BME280;37521;52.020;-1.740;2023-02-28T09:21:07;101787.69;;;2.01;100.00
51452;BME280;37521;52.020;-1.740;2023-02-28T09:23:36;101785.06;;;2.01;100.00
51452;BME280;37521;52.020;-1.740;2023-02-28T09:26:05;101786.81;;;2.02;100.00
51452;BME280;37521;52.020;-1.740;2023-02-28T09:28:33;101782.50;;;2.04;100.00
51452;BME280;37521;52.020;-1.740;2023-02-28T09:31:02;101794.69;;;2.06;100.00
51452;BME280;37521;52.020;-1.740;2023-02-28T09:33:31;101780.00;;;2.10;100.00
51452;BME280;37521;52.020;-1.740;2023-02-28T09:36:02;101785.31;;;2.14;100.00
51452;BME280;37521;52.020;-1.740;2023-02-28T09:38:32;101787.06;;;2.17;100.00
51452;BME280;37521;52.020;-1.740;2023-02-28T09:41:01;101793.19;;;2.21;100.00
51452;BME280;37521;52.020;-1.740;2023-02-28T09:43:34;101787.97;;;2.21;100.00
51452;BME280;37521;52.020;-1.740;2023-02-28T09:46:11;101795.88;;;2.24;100.00
51452;BME280;37521;52.020;-1.740;2023-02-28T09:48:44;101791.53;;;2.26;100.00
51452;BME280;37521;52.020;-1.740;2023-02-28T09:51:27;101787.25;;;2.28;100.00
51452;BME280;37521;52.020;-1.740;2023-02-28T09:53:58;101779.38;;;2.25;100.00
51452;BME280;37521;52.020;-1.740;2023-02-28T09:56:33;101783.81;;;2.30;100.00
51452;BME280;37521;52.020;-1.740;2023-02-28T09:59:05;101783.03;;;2.36;100.00
51452;BME280;37521;52.020;-1.740;2023-02-28T10:01:43;101782.22;;;2.40;100.00
51452;BME280;37521;52.020;-1.740;2023-02-28T10:04:28;101790.03;;;2.40;100.00
51452;BME280;37521;52.020;-1.740;2023-02-28T10:07:04;101783.94;;;2.39;100.00
51452;BME280;37521;52.020;-1.740;2023-02-28T10:09:37;101794.44;;;2.42;100.00
51452;BME280;37521;52.020;-1.740;2023-02-28T10:12:05;101783.13;;;2.42;100.00
51452;BME280;37521;52.020;-1.740;2023-02-28T10:14:45;101788.38;;;2.45;100.00
51452;BME280;37521;52.020;-1.740;2023-02-28T10:17:17;101792.75;;;2.46;100.00
51452;BME280;37521;52.020;-1.740;2023-02-28T10:19:55;101777.16;;;2.49;100.00
51452;BME280;37521;52.020;-1.740;2023-02-28T10:22:27;101785.88;;;2.51;100.00
51452;BME280;37521;52.020;-1.740;2023-02-28T10:24:58;101789.31;;;2.49;100.00
51452;BME280;37521;52.020;-1.740;2023-02-28T10:27:33;101779.78;;;2.49;100.00
51452;BME280;37521;52.020;-1.740;2023-02-28T10:30:03;101785.00;;;2.51;100.00
51452;BME280;37521;52.020;-1.740;2023-02-28T10:32:33;101784.06;;;2.47;100.00
51452;BME280;37521;52.020;-1.740;2023-02-28T10:35:14;101786.66;;;2.47;100.00
51452;BME280;37521;52.020;-1.740;2023-02-28T10:37:44;101789.31;;;2.49;100.00
51452;BME280;37521;52.020;-1.740;2023-02-28T10:40:29;101786.75;;;2.52;100.00
51452;BME280;37521;52.020;-1.740;2023-02-28T10:43:00;101780.72;;;2.54;100.00
51452;BME280;37521;52.020;-1.740;2023-02-28T10:45:29;101781.59;;;2.56;100.00
51452;BME280;37521;52.020;-1.740;2023-02-28T10:48:00;101782.56;;;2.61;100.00
51452;BME280;37521;52.020;-1.740;2023-02-28T10:50:33;101771.28;;;2.64;100.00
51452;BME280;37521;52.020;-1.740;2023-02-28T10:53:08;101771.38;;;2.71;100.00
51452;BME280;37521;52.020;-1.740;2023-02-28T10:55:43;101762.78;;;2.79;100.00
51452;BME280;37521;52.020;-1.740;2023-02-28T10:58:21;101762.03;;;2.86;100.00
51452;BME280;37521;52.020;-1.740;2023-02-28T11:00:51;101749.13;;;2.95;100.00
51452;BME280;37521;52.020;-1.740;2023-02-28T11:03:25;101755.25;;;3.00;100.00
51452;BME280;37521;52.020;-1.740;2023-02-28T11:05:56;101753.50;;;2.99;100.00
51452;BME280;37521;52.020;-1.740;2023-02-28T11:08:25;101757.03;;;3.04;100.00
51452;BME280;37521;52.020;-1.740;2023-02-28T11:10:56;101754.44;;;3.04;100.00
51452;BME280;37521;52.020;-1.740;2023-02-28T11:13:28;101757.91;;;3.03;100.00
51452;BME280;37521;52.020;-1.740;2023-02-28T11:15:59;101755.28;;;3.03;100.00
51452;BME280;37521;52.020;-1.740;2023-02-28T11:18:31;101744.84;;;3.03;100.00
51452;BME280;37521;52.020;-1.740;2023-02-28T11:21:02;101754.44;;;3.03;100.00
51452;BME280;37521;52.020;-1.740;2023-02-28T11:23:32;101741.38;;;3.03;100.00
51452;BME280;37521;52.020;-1.740;2023-02-28T11:26:05;101742.25;;;3.03;100.00
51452;BME280;37521;52.020;-1.740;2023-02-28T11:28:38;101741.38;;;3.04;100.00
51452;BME280;37521;52.020;-1.740;2023-02-28T11:31:17;101744.03;;;3.07;100.00
51452;BME280;37521;52.020;-1.740;2023-02-28T11:33:48;101743.19;;;3.10;100.00
51452;BME280;37521;52.020;-1.740;2023-02-28T11:36:20;101737.13;;;3.12;100.00
51452;BME280;37521;52.020;-1.740;2023-02-28T11:38:53;101747.63;;;3.17;100.00
51452;BME280;37521;52.020;-1.740;2023-02-28T11:41:33;101750.25;;;3.20;100.00
51452;BME280;37521;52.020;-1.740;2023-02-28T11:44:23;101739.03;;;3.25;100.00
51452;BME280;37521;52.020;-1.740;2023-02-28T11:46:59;101737.38;;;3.34;100.00
51452;BME280;37521;52.020;-1.740;2023-02-28T11:49:36;101744.41;;;3.41;100.00
51452;BME280;37521;52.020;-1.740;2023-02-28T11:52:15;101742.72;;;3.46;100.00
51452;BME280;37521;52.020;-1.740;2023-02-28T11:55:02;101734.94;;;3.50;100.00
51452;BME280;37521;52.020;-1.740;2023-02-28T11:57:56;101724.50;;;3.52;100.00
51452;BME280;37521;52.020;-1.740;2023-02-28T12:00:39;101731.47;;;3.53;100.00
51452;BME280;37521;52.020;-1.740;2023-02-28T12:03:17;101730.66;;;3.57;100.00
51452;BME280;37521;52.020;-1.740;2023-02-28T12:05:56;101717.63;;;3.60;100.00
51452;BME280;37521;52.020;-1.740;2023-02-28T12:08:40;101723.69;;;3.58;100.00
51452;BME280;37521;52.020;-1.740;2023-02-28T12:11:17;101724.50;;;3.50;100.00
51452;BME280;37521;52.020;-1.740;2023-02-28T12:13:58;101722.75;;;3.48;100.00
51452;BME280;37521;52.020;-1.740;2023-02-28T12:16:41;101717.47;;;3.45;100.00
51452;BME280;37521;52.020;-1.740;2023-02-28T12:19:19;101712.25;;;3.43;100.00
51452;BME280;37521;52.020;-1.740;2023-02-28T12:22:02;101706.16;;;3.46;100.00
51452;BME280;37521;52.020;-1.740;2023-02-28T12:24:44;101711.53;;;3.60;100.00
51452;BME280;37521;52.020;-1.740;2023-02-28T12:27:16;101704.66;;;3.69;100.00
51452;BME280;37521;52.020;-1.740;2023-02-28T12:29:49;101701.13;;;3.67;100.00
51452;BME280;37521;52.020;-1.740;2023-02-28T12:32:26;101702.91;;;3.68;100.00
51452;BME280;37521;52.020;-1.740;2023-02-28T12:35:00;101694.16;;;3.63;100.00
51452;BME280;37521;52.020;-1.740;2023-02-28T12:37:29;101684.59;;;3.62;100.00
51452;BME280;37521;52.020;-1.740;2023-02-28T12:40:03;101688.03;;;3.60;100.00
51452;BME280;37521;52.020;-1.740;2023-02-28T12:42:38;101679.31;;;3.56;100.00
51452;BME280;37521;52.020;-1.740;2023-02-28T12:45:12;101692.31;;;3.53;100.00
51452;BME280;37521;52.020;-1.740;2023-02-28T12:47:44;101675.75;;;3.51;100.00
51452;BME280;37521;52.020;-1.740;2023-02-28T12:50:15;101680.13;;;3.52;100.00
51452;BME280;37521;52.020;-1.740;2023-02-28T12:52:50;101676.69;;;3.54;100.00
51452;BME280;37521;52.020;-1.740;2023-02-28T12:55:25;101668.88;;;3.61;100.00
51452;BME280;37521;52.020;-1.740;2023-02-28T12:58:01;101666.38;;;3.71;100.00
51452;BME280;37521;52.020;-1.740;2023-02-28T13:00:36;101657.72;;;3.77;100.00
51452;BME280;37521;52.020;-1.740;2023-02-28T13:06:10;101662.06;;;3.76;100.00
51452;BME280;37521;52.020;-1.740;2023-02-28T13:09:03;101662.94;;;3.78;100.00
51452;BME280;37521;52.020;-1.740;2023-02-28T13:11:38;101665.59;;;3.86;100.00
51452;BME280;37521;52.020;-1.740;2023-02-28T13:14:19;101663.03;;;3.91;100.00
51452;BME280;37521;52.020;-1.740;2023-02-28T13:16:55;101670.00;;;3.89;100.00
51452;BME280;37521;52.020;-1.740;2023-02-28T13:19:26;101657.75;;;3.85;100.00